createdAt,value
2018-02-17T00:00:09.453Z,1019.87
2018-02-17T00:02:02.721Z,1019.84
2018-02-17T00:03:02.632Z,1019.84
2018-02-17T00:04:56.995Z,1019.83
2018-02-17T00:05:56.799Z,1019.81
2018-02-17T00:07:50.064Z,1019.79
2018-02-17T00:08:49.977Z,1019.77
2018-02-17T00:10:43.229Z,1019.72
2018-02-17T00:11:43.156Z,1019.74
2018-02-17T00:13:36.425Z,1019.69
2018-02-17T00:14:36.336Z,1019.71
2018-02-17T00:16:29.584Z,1019.73
2018-02-17T00:17:29.511Z,1019.72
2018-02-17T00:19:22.779Z,1019.72
2018-02-17T00:20:22.687Z,1019.70
2018-02-17T00:22:15.958Z,1019.69
2018-02-17T00:23:15.864Z,1019.70
2018-02-17T00:25:09.116Z,1019.68
2018-02-17T00:26:09.040Z,1019.70
2018-02-17T00:28:02.308Z,1019.74
2018-02-17T00:29:02.219Z,1019.74
2018-02-17T00:30:55.548Z,1019.76
2018-02-17T00:31:55.476Z,1019.77
2018-02-17T00:33:48.746Z,1019.78
2018-02-17T00:34:48.652Z,1019.76
2018-02-17T00:36:41.414Z,1019.77
2018-02-17T00:37:41.340Z,1019.79
2018-02-17T00:39:34.613Z,1019.78
2018-02-17T00:40:34.516Z,1019.80
2018-02-17T00:42:27.788Z,1019.78
2018-02-17T00:43:27.691Z,1019.76
2018-02-17T00:45:20.942Z,1019.79
2018-02-17T00:46:20.868Z,1019.75
2018-02-17T00:48:14.136Z,1019.75
2018-02-17T00:49:14.042Z,1019.77
2018-02-17T00:51:07.562Z,1019.76
2018-02-17T00:52:07.488Z,1019.75
2018-02-17T00:54:00.758Z,1019.65
2018-02-17T00:55:00.666Z,1019.64
2018-02-17T00:56:53.912Z,1019.61
2018-02-17T00:57:53.837Z,1019.57
2018-02-17T00:59:47.097Z,1019.58
2018-02-17T01:00:47.005Z,1019.58
2018-02-17T01:02:40.271Z,1019.60
2018-02-17T01:03:40.179Z,1019.65
2018-02-17T01:05:33.560Z,1019.64
2018-02-17T01:06:33.491Z,1019.63
2018-02-17T01:08:26.757Z,1019.58
2018-02-17T01:09:26.663Z,1019.57
2018-02-17T01:11:19.912Z,1019.60
2018-02-17T01:12:19.838Z,1019.60
2018-02-17T01:14:13.218Z,1019.60
2018-02-17T01:15:13.014Z,1019.63
2018-02-17T01:17:06.263Z,1019.64
2018-02-17T01:18:06.188Z,1019.66
2018-02-17T01:19:59.591Z,1019.58
2018-02-17T01:20:59.499Z,1019.60
2018-02-17T01:22:52.764Z,1019.58
2018-02-17T01:23:52.670Z,1019.57
2018-02-17T01:25:45.921Z,1019.61
2018-02-17T01:26:45.848Z,1019.64
2018-02-17T01:28:39.116Z,1019.55
2018-02-17T01:29:39.023Z,1019.52
2018-02-17T01:31:32.271Z,1019.43
2018-02-17T01:32:32.199Z,1019.37
2018-02-17T01:34:25.596Z,1019.30
2018-02-17T01:35:25.498Z,1019.27
2018-02-17T01:37:18.747Z,1019.22
2018-02-17T01:38:18.673Z,1019.18
2018-02-17T01:40:11.931Z,1019.18
2018-02-17T01:41:11.840Z,1019.18
2018-02-17T01:43:05.108Z,1019.18
2018-02-17T01:44:05.011Z,1019.15
2018-02-17T01:45:58.260Z,1019.11
2018-02-17T01:46:58.187Z,1019.15
2018-02-17T01:48:51.450Z,1019.07
2018-02-17T01:49:51.359Z,1019.11
2018-02-17T01:51:44.609Z,1019.09
2018-02-17T01:52:44.534Z,1019.06
2018-02-17T01:54:37.801Z,1019.05
2018-02-17T01:55:37.706Z,1019.01
2018-02-17T01:57:30.956Z,1019.02
2018-02-17T01:58:30.874Z,1019.00
2018-02-17T02:00:24.144Z,1018.94
2018-02-17T02:01:24.050Z,1018.98
2018-02-17T02:03:17.600Z,1018.97
2018-02-17T02:04:17.506Z,1018.95
2018-02-17T02:06:10.759Z,1018.95
2018-02-17T02:07:10.685Z,1018.92
2018-02-17T02:09:03.949Z,1018.90
2018-02-17T02:10:03.855Z,1018.88
2018-02-17T02:11:57.217Z,1018.86
2018-02-17T02:12:57.027Z,1018.85
2018-02-17T02:14:50.296Z,1018.81
2018-02-17T02:15:50.205Z,1018.83
2018-02-17T02:17:43.592Z,1018.79
2018-02-17T02:18:43.517Z,1018.78
2018-02-17T02:20:36.776Z,1018.79
2018-02-17T02:21:36.682Z,1018.72
2018-02-17T02:23:29.953Z,1018.71
2018-02-17T02:24:29.852Z,1018.71
2018-02-17T02:26:23.217Z,1018.72
2018-02-17T02:27:23.030Z,1018.78
2018-02-17T02:29:16.298Z,1018.74
2018-02-17T02:30:16.204Z,1018.79
2018-02-17T02:32:09.598Z,1018.76
2018-02-17T02:33:09.527Z,1018.72
2018-02-17T02:35:02.791Z,1018.73
2018-02-17T02:36:02.690Z,1018.68
2018-02-17T02:37:55.952Z,1018.76
2018-02-17T02:38:55.870Z,1018.74
2018-02-17T02:40:49.145Z,1018.79
2018-02-17T02:41:49.048Z,1018.83
2018-02-17T02:43:42.316Z,1018.85
2018-02-17T02:44:42.221Z,1018.81
2018-02-17T02:46:35.597Z,1018.79
2018-02-17T02:47:35.521Z,1018.84
2018-02-17T02:49:28.789Z,1018.81
2018-02-17T02:50:28.698Z,1018.86
2018-02-17T02:52:21.945Z,1018.80
2018-02-17T02:53:21.870Z,1018.82
2018-02-17T02:55:15.143Z,1018.83
2018-02-17T02:56:15.047Z,1018.78
2018-02-17T02:58:08.295Z,1018.73
2018-02-17T02:59:08.220Z,1018.77
2018-02-17T03:01:01.643Z,1018.77
2018-02-17T03:02:01.512Z,1018.75
2018-02-17T03:03:54.782Z,1018.79
2018-02-17T03:04:54.689Z,1018.78
2018-02-17T03:06:47.936Z,1018.77
2018-02-17T03:07:47.859Z,1018.77
2018-02-17T03:09:41.130Z,1018.81
2018-02-17T03:10:41.040Z,1018.85
2018-02-17T03:12:34.285Z,1018.81
2018-02-17T03:13:34.223Z,1018.79
2018-02-17T03:15:27.614Z,1018.79
2018-02-17T03:16:27.519Z,1018.76
2018-02-17T03:18:20.770Z,1018.73
2018-02-17T03:19:20.697Z,1018.72
2018-02-17T03:21:13.961Z,1018.74
2018-02-17T03:22:13.868Z,1018.71
2018-02-17T03:24:07.134Z,1018.68
2018-02-17T03:25:07.040Z,1018.68
2018-02-17T03:27:00.401Z,1018.68
2018-02-17T03:28:00.214Z,1018.63
2018-02-17T03:29:53.472Z,1018.67
2018-02-17T03:30:53.379Z,1018.65
2018-02-17T03:32:46.636Z,1018.65
2018-02-17T03:33:46.551Z,1018.66
2018-02-17T03:35:39.816Z,1018.67
2018-02-17T03:36:39.724Z,1018.64
2018-02-17T03:38:32.968Z,1018.56
2018-02-17T03:39:32.895Z,1018.55
2018-02-17T03:41:26.275Z,1018.50
2018-02-17T03:42:26.068Z,1018.53
2018-02-17T03:44:19.608Z,1018.59
2018-02-17T03:45:19.513Z,1018.56
2018-02-17T03:47:12.758Z,1018.58
2018-02-17T03:48:12.683Z,1018.55
2018-02-17T03:50:05.942Z,1018.57
2018-02-17T03:51:05.846Z,1018.54
2018-02-17T03:52:59.094Z,1018.51
2018-02-17T03:53:59.017Z,1018.50
2018-02-17T03:55:52.285Z,1018.51
2018-02-17T03:56:52.190Z,1018.48
2018-02-17T03:58:45.598Z,1018.52
2018-02-17T03:59:45.519Z,1018.48
2018-02-17T04:01:38.785Z,1018.49
2018-02-17T04:02:38.690Z,1018.49
2018-02-17T04:04:31.955Z,1018.56
2018-02-17T04:05:31.860Z,1018.54
2018-02-17T04:07:25.108Z,1018.55
2018-02-17T04:08:25.033Z,1018.52
2018-02-17T04:10:18.289Z,1018.49
2018-02-17T04:11:18.195Z,1018.44
2018-02-17T04:13:11.593Z,1018.42
2018-02-17T04:14:11.516Z,1018.36
2018-02-17T04:16:04.782Z,1018.38
2018-02-17T04:17:04.687Z,1018.37
2018-02-17T04:18:57.933Z,1018.35
2018-02-17T04:19:57.859Z,1018.33
2018-02-17T04:21:51.127Z,1018.36
2018-02-17T04:22:51.032Z,1018.36
2018-02-17T04:24:44.299Z,1018.35
2018-02-17T04:25:44.205Z,1018.35
2018-02-17T04:27:37.589Z,1018.31
2018-02-17T04:28:37.515Z,1018.28
2018-02-17T04:30:30.785Z,1018.27
2018-02-17T04:31:30.688Z,1018.28
2018-02-17T04:33:23.937Z,1018.28
2018-02-17T04:34:23.860Z,1018.29
2018-02-17T04:36:17.242Z,1018.22
2018-02-17T04:37:17.033Z,1018.20
2018-02-17T04:39:10.395Z,1018.16
2018-02-17T04:40:10.213Z,1018.16
2018-02-17T04:42:03.603Z,1018.17
2018-02-17T04:43:03.506Z,1018.14
2018-02-17T04:44:56.775Z,1018.14
2018-02-17T04:45:56.681Z,1018.14
2018-02-17T04:47:49.930Z,1018.09
2018-02-17T04:48:49.854Z,1018.05
2018-02-17T04:50:43.122Z,1018.04
2018-02-17T04:51:43.027Z,1018.05
2018-02-17T04:53:36.274Z,1017.92
2018-02-17T04:54:36.200Z,1017.91
2018-02-17T04:56:29.607Z,1017.88
2018-02-17T04:57:29.512Z,1017.92
2018-02-17T04:59:22.761Z,1017.89
2018-02-17T05:00:22.685Z,1017.85
2018-02-17T05:02:15.963Z,1017.82
2018-02-17T05:03:15.868Z,1017.89
2018-02-17T05:05:09.136Z,1017.87
2018-02-17T05:06:09.041Z,1017.88
2018-02-17T05:08:02.288Z,1017.79
2018-02-17T05:09:02.214Z,1017.79
2018-02-17T05:10:55.602Z,1017.78
2018-02-17T05:11:55.506Z,1017.75
2018-02-17T05:13:48.754Z,1017.67
2018-02-17T05:14:48.678Z,1017.69
2018-02-17T05:17:02.903Z,1017.75
2018-02-17T05:17:41.852Z,1017.73
2018-02-17T05:19:35.098Z,1017.70
2018-02-17T05:20:35.022Z,1017.71
2018-02-17T05:22:28.290Z,1017.66
2018-02-17T05:23:28.195Z,1017.63
2018-02-17T05:25:21.591Z,1017.63
2018-02-17T05:26:21.497Z,1017.63
2018-02-17T05:28:14.856Z,1017.65
2018-02-17T05:29:14.670Z,1017.64
2018-02-17T05:31:07.937Z,1017.64
2018-02-17T05:32:07.841Z,1017.63
2018-02-17T05:34:01.084Z,1017.58
2018-02-17T05:35:01.019Z,1017.54
2018-02-17T05:36:54.280Z,1017.55
2018-02-17T05:37:54.189Z,1017.59
2018-02-17T05:39:47.424Z,1017.55
2018-02-17T05:40:47.353Z,1017.53
2018-02-17T05:42:40.619Z,1017.55
2018-02-17T05:43:40.521Z,1017.51
2018-02-17T05:45:33.789Z,1017.48
2018-02-17T05:46:33.695Z,1017.50
2018-02-17T05:48:26.944Z,1017.54
2018-02-17T05:49:26.869Z,1017.52
2018-02-17T05:51:20.131Z,1017.55
2018-02-17T05:52:20.040Z,1017.52
2018-02-17T05:54:13.583Z,1017.52
2018-02-17T05:55:13.505Z,1017.54
2018-02-17T05:57:06.885Z,1017.52
2018-02-17T05:58:06.679Z,1017.54
2018-02-17T06:00:00.032Z,1017.49
2018-02-17T06:00:59.852Z,1017.52
2018-02-17T06:02:53.118Z,1017.44
2018-02-17T06:03:53.026Z,1017.46
2018-02-17T06:05:46.291Z,1017.47
2018-02-17T06:06:46.199Z,1017.45
2018-02-17T06:08:39.574Z,1017.50
2018-02-17T06:09:39.499Z,1017.42
2018-02-17T06:11:32.766Z,1017.48
2018-02-17T06:12:32.674Z,1017.46
2018-02-17T06:14:25.921Z,1017.49
2018-02-17T06:15:25.851Z,1017.55
2018-02-17T06:17:19.118Z,1017.55
2018-02-17T06:18:19.020Z,1017.48
2018-02-17T06:20:12.272Z,1017.49
2018-02-17T06:21:12.196Z,1017.51
2018-02-17T06:23:05.589Z,1017.43
2018-02-17T06:24:05.499Z,1017.44
2018-02-17T06:25:58.764Z,1017.47
2018-02-17T06:26:58.669Z,1017.48
2018-02-17T06:28:51.915Z,1017.48
2018-02-17T06:29:51.838Z,1017.50
2018-02-17T06:31:45.219Z,1017.49
2018-02-17T06:32:45.013Z,1017.50
2018-02-17T06:34:38.261Z,1017.53
2018-02-17T06:35:38.184Z,1017.51
2018-02-17T06:37:31.599Z,1017.54
2018-02-17T06:38:31.499Z,1017.57
2018-02-17T06:40:24.738Z,1017.57
2018-02-17T06:41:24.664Z,1017.52
2018-02-17T06:43:18.933Z,1017.53
2018-02-17T06:44:18.836Z,1017.57
2018-02-17T06:46:12.104Z,1017.59
2018-02-17T06:47:12.010Z,1017.59
2018-02-17T06:49:05.257Z,1017.57
2018-02-17T06:50:05.181Z,1017.53
2018-02-17T06:51:58.448Z,1017.51
2018-02-17T06:52:58.354Z,1017.52
2018-02-17T06:54:51.603Z,1017.53
2018-02-17T06:55:51.528Z,1017.43
2018-02-17T06:57:44.794Z,1017.42
2018-02-17T06:58:44.705Z,1017.40
2018-02-17T07:00:37.941Z,1017.40
2018-02-17T07:01:37.863Z,1017.39
2018-02-17T07:03:31.132Z,1017.34
2018-02-17T07:04:31.039Z,1017.30
2018-02-17T07:06:24.309Z,1017.27
2018-02-17T07:07:24.213Z,1017.28
2018-02-17T07:09:17.597Z,1017.31
2018-02-17T07:10:17.525Z,1017.31
2018-02-17T07:12:10.783Z,1017.22
2018-02-17T07:13:10.690Z,1017.27
2018-02-17T07:15:03.935Z,1017.20
2018-02-17T07:16:03.848Z,1017.18
2018-02-17T07:17:57.107Z,1017.16
2018-02-17T07:18:57.016Z,1017.14
2018-02-17T07:20:50.248Z,1017.14
2018-02-17T07:21:50.175Z,1017.12
2018-02-17T07:23:43.592Z,1017.14
2018-02-17T07:24:43.497Z,1017.12
2018-02-17T07:26:36.754Z,1017.09
2018-02-17T07:27:36.658Z,1017.04
2018-02-17T07:29:29.895Z,1017.04
2018-02-17T07:30:29.823Z,1017.02
2018-02-17T07:32:23.082Z,1017.02
2018-02-17T07:33:22.985Z,1017.04
2018-02-17T07:35:16.232Z,1017.07
2018-02-17T07:36:16.168Z,1017.03
2018-02-17T07:38:09.538Z,1017.04
2018-02-17T07:39:09.329Z,1017.00
2018-02-17T07:41:02.596Z,1017.06
2018-02-17T07:42:02.504Z,1017.06
2018-02-17T07:43:55.770Z,1017.04
2018-02-17T07:44:55.676Z,1016.98
2018-02-17T07:46:48.944Z,1017.02
2018-02-17T07:47:48.851Z,1017.00
2018-02-17T07:49:42.098Z,1017.00
2018-02-17T07:50:42.024Z,1017.01
2018-02-17T07:52:35.420Z,1016.98
2018-02-17T07:53:35.324Z,1016.93
2018-02-17T07:55:28.687Z,1016.94
2018-02-17T07:56:28.501Z,1016.95
2018-02-17T07:58:21.771Z,1016.88
2018-02-17T07:59:21.675Z,1016.93
2018-02-17T08:01:14.944Z,1016.96
2018-02-17T08:02:14.851Z,1016.87
2018-02-17T08:04:08.118Z,1016.93
2018-02-17T08:05:08.025Z,1016.95
2018-02-17T08:07:01.419Z,1016.94
2018-02-17T08:08:01.323Z,1016.94
2018-02-17T08:09:54.569Z,1016.87
2018-02-17T08:10:54.491Z,1016.90
2018-02-17T08:12:47.780Z,1016.88
2018-02-17T08:13:47.689Z,1016.80
2018-02-17T08:15:40.925Z,1016.80
2018-02-17T08:16:40.848Z,1016.79
2018-02-17T08:18:34.228Z,1016.80
2018-02-17T08:19:34.010Z,1016.77
2018-02-17T08:21:27.281Z,1016.83
2018-02-17T08:22:27.180Z,1016.80
2018-02-17T08:24:20.418Z,1016.90
2018-02-17T08:25:20.346Z,1016.93
2018-02-17T08:27:13.604Z,1016.92
2018-02-17T08:28:13.510Z,1016.93
2018-02-17T08:30:06.752Z,1016.99
2018-02-17T08:31:06.675Z,1016.99
2018-02-17T08:32:59.935Z,1016.99
2018-02-17T08:33:59.837Z,1016.95
2018-02-17T08:35:53.088Z,1016.92
2018-02-17T08:36:53.014Z,1016.94
2018-02-17T08:38:46.287Z,1016.94
2018-02-17T08:39:46.223Z,1016.93
2018-02-17T08:41:39.455Z,1016.88
2018-02-17T08:42:39.357Z,1016.92
2018-02-17T08:44:32.595Z,1016.90
2018-02-17T08:45:32.520Z,1016.88
2018-02-17T08:47:25.781Z,1016.87
2018-02-17T08:48:25.691Z,1016.84
2018-02-17T08:50:19.049Z,1016.84
2018-02-17T08:51:18.857Z,1016.87
2018-02-17T08:53:12.155Z,1016.91
2018-02-17T08:54:12.063Z,1016.84
2018-02-17T08:56:05.425Z,1016.85
2018-02-17T08:57:05.334Z,1016.84
2018-02-17T08:58:58.595Z,1016.84
2018-02-17T08:59:58.502Z,1016.83
2018-02-17T09:01:51.765Z,1016.81
2018-02-17T09:02:51.668Z,1016.80
2018-02-17T09:04:44.909Z,1016.80
2018-02-17T09:05:44.834Z,1016.82
2018-02-17T09:07:38.093Z,1016.81
2018-02-17T09:08:38.002Z,1016.85
2018-02-17T09:10:31.247Z,1016.83
2018-02-17T09:11:31.172Z,1016.85
2018-02-17T09:13:24.433Z,1016.85
2018-02-17T09:14:24.338Z,1016.80
2018-02-17T09:16:17.579Z,1016.83
2018-02-17T09:17:17.506Z,1016.81
2018-02-17T09:19:10.776Z,1016.79
2018-02-17T09:20:10.678Z,1016.79
2018-02-17T09:22:03.939Z,1016.79
2018-02-17T09:23:03.845Z,1016.79
2018-02-17T09:24:57.085Z,1016.83
2018-02-17T09:25:57.013Z,1016.82
2018-02-17T09:27:50.272Z,1016.84
2018-02-17T09:28:50.179Z,1016.87
2018-02-17T09:30:43.425Z,1016.93
2018-02-17T09:31:43.352Z,1016.95
2018-02-17T09:33:36.615Z,1016.94
2018-02-17T09:34:36.522Z,1016.96
2018-02-17T09:36:29.768Z,1016.93
2018-02-17T09:37:29.689Z,1016.91
2018-02-17T09:39:22.953Z,1016.94
2018-02-17T09:40:22.869Z,1016.94
2018-02-17T09:42:16.124Z,1016.93
2018-02-17T09:43:16.034Z,1016.92
2018-02-17T09:45:08.788Z,1016.91
2018-02-17T09:46:08.716Z,1016.93
2018-02-17T09:48:02.090Z,1016.97
2018-02-17T09:49:01.880Z,1016.93
2018-02-17T09:50:55.123Z,1017.00
2018-02-17T09:51:55.051Z,1017.01
2018-02-17T09:53:48.318Z,1017.02
2018-02-17T09:54:48.224Z,1017.02
2018-02-17T09:56:42.472Z,1017.07
2018-02-17T09:57:42.401Z,1017.07
2018-02-17T09:59:35.667Z,1017.11
2018-02-17T10:00:35.616Z,1017.14
2018-02-17T10:02:28.835Z,1017.13
2018-02-17T10:03:28.752Z,1017.12
2018-02-17T10:05:21.988Z,1017.12
2018-02-17T10:06:21.916Z,1017.09
2018-02-17T10:08:16.188Z,1017.09
2018-02-17T10:09:16.087Z,1017.08
2018-02-17T10:11:09.456Z,1017.13
2018-02-17T10:12:09.341Z,1017.12
2018-02-17T10:14:02.600Z,1017.15
2018-02-17T10:15:02.514Z,1017.17
2018-02-17T10:16:55.880Z,1017.19
2018-02-17T10:17:55.686Z,1017.17
2018-02-17T10:19:49.950Z,1017.21
2018-02-17T10:20:49.864Z,1017.21
2018-02-17T10:22:43.127Z,1017.21
2018-02-17T10:23:43.040Z,1017.21
2018-02-17T10:25:36.398Z,1017.28
2018-02-17T10:26:36.211Z,1017.22
2018-02-17T10:28:29.605Z,1017.22
2018-02-17T10:29:29.506Z,1017.16
2018-02-17T10:31:22.883Z,1017.08
2018-02-17T10:32:22.691Z,1017.07
2018-02-17T10:34:15.951Z,1017.05
2018-02-17T10:35:15.863Z,1017.04
2018-02-17T10:37:09.108Z,1017.10
2018-02-17T10:38:09.033Z,1017.11
2018-02-17T10:40:02.296Z,1017.11
2018-02-17T10:41:02.212Z,1017.14
2018-02-17T10:42:55.603Z,1017.13
2018-02-17T10:43:55.513Z,1017.12
2018-02-17T10:45:48.879Z,1017.05
2018-02-17T10:46:48.685Z,1017.04
2018-02-17T10:48:41.949Z,1017.01
2018-02-17T10:49:41.867Z,1017.01
2018-02-17T10:51:36.113Z,1017.07
2018-02-17T10:52:36.037Z,1017.09
2018-02-17T10:54:29.632Z,1017.12
2018-02-17T10:55:29.515Z,1017.08
2018-02-17T10:57:22.761Z,1017.09
2018-02-17T10:58:22.688Z,1017.06
2018-02-17T11:00:15.468Z,1017.04
2018-02-17T11:01:15.378Z,1017.06
2018-02-17T11:03:08.653Z,1017.06
2018-02-17T11:04:08.562Z,1017.06
2018-02-17T11:06:01.427Z,1017.02
2018-02-17T11:07:01.249Z,1017.05
2018-02-17T11:08:54.523Z,1017.06
2018-02-17T11:09:54.425Z,1017.07
2018-02-17T11:11:48.668Z,1017.09
2018-02-17T11:12:48.626Z,1017.08
2018-02-17T11:14:41.867Z,1017.09
2018-02-17T11:15:41.779Z,1017.11
2018-02-17T11:17:36.034Z,1017.10
2018-02-17T11:18:35.957Z,1017.10
2018-02-17T11:20:30.232Z,1017.09
2018-02-17T11:21:30.146Z,1017.06
2018-02-17T11:23:23.611Z,1017.07
2018-02-17T11:24:23.520Z,1017.07
2018-02-17T11:26:16.769Z,1017.05
2018-02-17T11:27:16.696Z,1017.12
2018-02-17T11:29:09.966Z,1017.12
2018-02-17T11:30:09.878Z,1017.12
2018-02-17T11:32:03.241Z,1017.13
2018-02-17T11:33:03.060Z,1017.14
2018-02-17T11:34:56.325Z,1017.14
2018-02-17T11:35:56.238Z,1017.13
2018-02-17T11:37:49.599Z,1017.16
2018-02-17T11:38:49.516Z,1017.12
2018-02-17T11:40:42.903Z,1017.14
2018-02-17T11:41:42.691Z,1017.10
2018-02-17T11:43:36.970Z,1017.05
2018-02-17T11:44:36.879Z,1017.04
2018-02-17T11:46:30.236Z,1016.96
2018-02-17T11:47:30.051Z,1016.95
2018-02-17T11:49:24.315Z,1016.93
2018-02-17T11:50:24.224Z,1016.91
2018-02-17T11:52:17.580Z,1016.90
2018-02-17T11:53:17.510Z,1016.90
2018-02-17T11:55:10.771Z,1016.90
2018-02-17T11:56:10.684Z,1016.93
2018-02-17T11:58:03.926Z,1016.91
2018-02-17T11:59:03.853Z,1016.93
2018-02-17T12:00:58.131Z,1016.91
2018-02-17T12:01:58.037Z,1016.90
2018-02-17T12:03:51.611Z,1016.96
2018-02-17T12:04:51.525Z,1016.94
2018-02-17T12:06:44.769Z,1016.97
2018-02-17T12:07:44.701Z,1016.91
2018-02-17T12:09:38.091Z,1016.90
2018-02-17T12:10:37.868Z,1016.92
2018-02-17T12:12:31.126Z,1016.87
2018-02-17T12:13:31.046Z,1016.84
2018-02-17T12:15:24.310Z,1016.90
2018-02-17T12:16:24.219Z,1016.90
2018-02-17T12:18:17.596Z,1016.83
2018-02-17T12:19:17.523Z,1016.78
2018-02-17T12:21:10.806Z,1016.81
2018-02-17T12:22:10.710Z,1016.78
2018-02-17T12:24:04.045Z,1016.79
2018-02-17T12:25:03.884Z,1016.79
2018-02-17T12:26:57.133Z,1016.77
2018-02-17T12:27:57.057Z,1016.79
2018-02-17T12:29:50.325Z,1016.77
2018-02-17T12:30:50.234Z,1016.78
2018-02-17T12:32:43.604Z,1016.81
2018-02-17T12:33:43.531Z,1016.82
2018-02-17T12:35:36.917Z,1016.81
2018-02-17T12:36:36.700Z,1016.82
2018-02-17T12:38:29.948Z,1016.78
2018-02-17T12:39:29.884Z,1016.79
2018-02-17T12:41:23.275Z,1016.79
2018-02-17T12:42:23.064Z,1016.77
2018-02-17T12:44:16.329Z,1016.79
2018-02-17T12:45:16.238Z,1016.77
2018-02-17T12:47:09.606Z,1016.78
2018-02-17T12:48:09.535Z,1016.77
2018-02-17T12:50:02.803Z,1016.74
2018-02-17T12:51:02.708Z,1016.77
2018-02-17T12:52:55.964Z,1016.77
2018-02-17T12:53:55.897Z,1016.77
2018-02-17T12:55:49.164Z,1016.78
2018-02-17T12:56:49.069Z,1016.79
2018-02-17T12:58:42.315Z,1016.80
2018-02-17T12:59:42.243Z,1016.77
2018-02-17T13:01:35.634Z,1016.78
2018-02-17T13:02:35.543Z,1016.77
2018-02-17T13:04:28.817Z,1016.73
2018-02-17T13:05:28.730Z,1016.70
2018-02-17T13:07:21.975Z,1016.67
2018-02-17T13:08:21.909Z,1016.69
2018-02-17T13:10:15.170Z,1016.75
2018-02-17T13:11:15.078Z,1016.74
2018-02-17T13:13:08.446Z,1016.77
2018-02-17T13:14:08.289Z,1016.78
2018-02-17T13:16:01.684Z,1016.77
2018-02-17T13:17:01.552Z,1016.80
2018-02-17T13:18:54.800Z,1016.80
2018-02-17T13:19:54.731Z,1016.83
2018-02-17T13:21:48.120Z,1016.87
2018-02-17T13:22:47.915Z,1016.82
2018-02-17T13:24:41.268Z,1016.83
2018-02-17T13:25:41.173Z,1016.86
2018-02-17T13:27:34.424Z,1016.85
2018-02-17T13:28:34.348Z,1016.87
2018-02-17T13:30:27.644Z,1016.84
2018-02-17T13:31:27.554Z,1016.82
2018-02-17T13:33:20.813Z,1016.79
2018-02-17T13:34:20.741Z,1016.81
2018-02-17T13:36:14.008Z,1016.83
2018-02-17T13:37:13.918Z,1016.81
2018-02-17T13:39:08.286Z,1016.76
2018-02-17T13:40:08.091Z,1016.72
2018-02-17T13:42:01.987Z,1016.76
2018-02-17T13:43:01.533Z,1016.73
2018-02-17T13:44:54.800Z,1016.72
2018-02-17T13:45:54.719Z,1016.70
2018-02-17T13:47:47.966Z,1016.73
2018-02-17T13:48:47.892Z,1016.74
2018-02-17T13:50:41.163Z,1016.81
2018-02-17T13:51:41.068Z,1016.82
2018-02-17T13:53:34.317Z,1016.84
2018-02-17T13:54:34.246Z,1016.84
2018-02-17T13:56:27.642Z,1016.82
2018-02-17T13:57:27.552Z,1016.85
2018-02-17T13:59:20.799Z,1016.81
2018-02-17T14:00:20.726Z,1016.85
2018-02-17T14:02:13.992Z,1016.85
2018-02-17T14:03:13.905Z,1016.83
2018-02-17T14:05:07.187Z,1016.87
2018-02-17T14:06:07.097Z,1016.82
2018-02-17T14:08:00.462Z,1016.88
2018-02-17T14:09:00.271Z,1016.88
2018-02-17T14:10:53.630Z,1016.85
2018-02-17T14:11:53.541Z,1016.88
2018-02-17T14:13:47.794Z,1016.85
2018-02-17T14:14:47.719Z,1016.85
2018-02-17T14:16:40.985Z,1016.89
2018-02-17T14:17:40.896Z,1016.92
2018-02-17T14:19:35.154Z,1016.92
2018-02-17T14:20:35.080Z,1016.93
2018-02-17T14:22:28.358Z,1016.95
2018-02-17T14:23:28.269Z,1016.92
2018-02-17T14:25:21.546Z,1016.91
2018-02-17T14:26:21.467Z,1016.87
2018-02-17T14:28:14.701Z,1016.88
2018-02-17T14:29:14.625Z,1016.95
2018-02-17T14:31:07.900Z,1016.94
2018-02-17T14:32:07.817Z,1016.96
2018-02-17T14:34:01.070Z,1017.00
2018-02-17T14:35:01.001Z,1016.99
2018-02-17T14:36:55.284Z,1017.02
2018-02-17T14:37:55.197Z,1017.04
2018-02-17T14:39:48.455Z,1017.00
2018-02-17T14:40:48.370Z,1016.97
2018-02-17T14:42:41.635Z,1017.01
2018-02-17T14:43:41.544Z,1017.04
2018-02-17T14:45:34.806Z,1016.96
2018-02-17T14:46:34.717Z,1016.94
2018-02-17T14:48:27.964Z,1017.02
2018-02-17T14:49:27.893Z,1017.06
2018-02-17T14:51:21.160Z,1017.06
2018-02-17T14:52:21.070Z,1017.12
2018-02-17T14:54:14.315Z,1017.10
2018-02-17T14:55:14.244Z,1017.13
2018-02-17T14:57:07.509Z,1017.11
2018-02-17T14:58:07.418Z,1017.08
2018-02-17T15:00:00.667Z,1017.06
2018-02-17T15:01:00.596Z,1017.10
2018-02-17T15:02:53.866Z,1017.08
2018-02-17T15:03:53.778Z,1017.10
2018-02-17T15:05:47.046Z,1017.14
2018-02-17T15:06:46.952Z,1017.13
2018-02-17T15:08:40.220Z,1017.13
2018-02-17T15:09:40.132Z,1017.11
2018-02-17T15:11:33.519Z,1017.18
2018-02-17T15:12:33.360Z,1017.20
2018-02-17T15:14:26.604Z,1017.20
2018-02-17T15:15:26.530Z,1017.15
2018-02-17T15:17:19.798Z,1017.22
2018-02-17T15:18:19.707Z,1017.19
2018-02-17T15:20:12.954Z,1017.15
2018-02-17T15:21:12.882Z,1017.17
2018-02-17T15:23:06.153Z,1017.17
2018-02-17T15:24:06.055Z,1017.15
2018-02-17T15:25:59.449Z,1017.16
2018-02-17T15:26:59.362Z,1017.17
2018-02-17T15:28:52.604Z,1017.15
2018-02-17T15:29:52.534Z,1017.16
2018-02-17T15:31:45.799Z,1017.14
2018-02-17T15:32:45.707Z,1017.15
2018-02-17T15:34:38.953Z,1017.18
2018-02-17T15:35:38.879Z,1017.19
2018-02-17T15:37:32.142Z,1017.20
2018-02-17T15:38:32.052Z,1017.20
2018-02-17T15:40:25.428Z,1017.13
2018-02-17T15:41:25.359Z,1017.17
2018-02-17T15:43:18.622Z,1017.18
2018-02-17T15:44:18.530Z,1017.22
2018-02-17T15:46:11.800Z,1017.22
2018-02-17T15:47:11.705Z,1017.23
2018-02-17T15:49:04.951Z,1017.26
2018-02-17T15:50:04.878Z,1017.25
2018-02-17T15:51:59.263Z,1017.25
2018-02-17T15:52:59.053Z,1017.27
2018-02-17T15:54:52.418Z,1017.27
2018-02-17T15:55:52.228Z,1017.31
2018-02-17T15:57:45.492Z,1017.28
2018-02-17T15:58:45.401Z,1017.23
2018-02-17T16:00:38.649Z,1017.22
2018-02-17T16:01:38.608Z,1017.23
2018-02-17T16:03:31.842Z,1017.31
2018-02-17T16:04:31.754Z,1017.31
2018-02-17T16:06:25.015Z,1017.36
2018-02-17T16:07:24.924Z,1017.34
2018-02-17T16:09:18.171Z,1017.36
2018-02-17T16:10:18.098Z,1017.36
2018-02-17T16:12:11.446Z,1017.33
2018-02-17T16:13:11.359Z,1017.37
2018-02-17T16:15:04.720Z,1017.36
2018-02-17T16:16:04.541Z,1017.36
2018-02-17T16:17:57.795Z,1017.38
2018-02-17T16:18:57.701Z,1017.40
2018-02-17T16:20:50.945Z,1017.40
2018-02-17T16:21:50.882Z,1017.43
2018-02-17T16:23:44.135Z,1017.48
2018-02-17T16:24:44.047Z,1017.46
2018-02-17T16:26:37.444Z,1017.53
2018-02-17T16:27:37.354Z,1017.50
2018-02-17T16:29:30.600Z,1017.49
2018-02-17T16:30:30.528Z,1017.49
2018-02-17T16:32:23.792Z,1017.48
2018-02-17T16:33:23.701Z,1017.50
2018-02-17T16:35:16.951Z,1017.50
2018-02-17T16:36:16.873Z,1017.56
2018-02-17T16:38:10.138Z,1017.53
2018-02-17T16:39:10.047Z,1017.52
2018-02-17T16:41:03.434Z,1017.55
2018-02-17T16:42:03.358Z,1017.53
2018-02-17T16:43:56.626Z,1017.58
2018-02-17T16:44:56.534Z,1017.59
2018-02-17T16:46:49.807Z,1017.63
2018-02-17T16:47:49.714Z,1017.60
2018-02-17T16:49:42.959Z,1017.66
2018-02-17T16:50:42.885Z,1017.64
2018-02-17T16:52:36.148Z,1017.65
2018-02-17T16:53:36.058Z,1017.66
2018-02-17T16:55:29.433Z,1017.64
2018-02-17T16:56:29.360Z,1017.69
2018-02-17T16:58:22.625Z,1017.67
2018-02-17T16:59:22.535Z,1017.70
2018-02-17T17:01:15.784Z,1017.70
2018-02-17T17:02:15.715Z,1017.71
2018-02-17T17:04:08.969Z,1017.69
2018-02-17T17:05:08.875Z,1017.69
2018-02-17T17:07:02.150Z,1017.74
2018-02-17T17:08:02.049Z,1017.69
2018-02-17T17:09:55.300Z,1017.78
2018-02-17T17:10:55.225Z,1017.76
2018-02-17T17:12:48.491Z,1017.84
2018-02-17T17:13:48.395Z,1017.81
2018-02-17T17:15:41.655Z,1017.89
2018-02-17T17:16:41.581Z,1017.89
2018-02-17T17:18:34.850Z,1017.87
2018-02-17T17:19:34.760Z,1017.95
2018-02-17T17:21:28.013Z,1017.99
2018-02-17T17:22:27.941Z,1017.93
2018-02-17T17:24:21.213Z,1018.00
2018-02-17T17:25:21.124Z,1018.04
2018-02-17T17:27:14.398Z,1018.07